New Lisbon, Wisconsin
Current Conditions -  °F | °C
As of 7:58 AM on Thursday 29 Jan 2015 (Local Time) from KVOK Reporting Station
Haze Haze  
Wind Chill: 21°   Ceiling: 900
Heat Index: 30°   Visibility: 6mi
Dew Point: 30°   Wind: 12mph
Humidity: 100%   Direction: 310°NW
Pressure: 29.93"   Gusts: 22mph
Location:  43.88°N, 90.17°W
Report Text: KVOK 291358Z 31010G19KT 6SM BR OVC009 M01/M01 A2993 RMK AO2A SLP145
Loading
Personal Weather Stations






























Interactive Weather Map New forecast layout! Learn more

10-Day Weather Forecast

Advertisements
Track Severe Weather on mobile